sensor_id;sensor_type;location;lat;lon;timestamp;pressure;altitude;pressure_sealevel;temperature;humidity
2036;BME280;23642;42.658;23.350;2023-01-16T00:01:16;45601.59;;;-146.31;100.00
2036;BME280;23642;42.658;23.350;2023-01-16T00:03:43;45609.81;;;-146.31;100.00
2036;BME280;23642;42.658;23.350;2023-01-16T00:06:10;45599.53;;;-146.31;100.00
2036;BME280;23642;42.658;23.350;2023-01-16T00:08:36;45603.66;;;-146.31;100.00
2036;BME280;23642;42.658;23.350;2023-01-16T00:11:03;45550.09;;;-146.31;100.00
2036;BME280;23642;42.658;23.350;2023-01-16T00:13:32;45539.81;;;-146.31;100.00
2036;BME280;23642;42.658;23.350;2023-01-16T00:15:58;45508.91;;;-146.31;100.00
2036;BME280;23642;42.658;23.350;2023-01-16T00:18:25;45490.38;;;-146.31;100.00
2036;BME280;23642;42.658;23.350;2023-01-16T00:20:52;45440.97;;;-146.31;100.00
2036;BME280;23642;42.658;23.350;2023-01-16T00:23:18;45469.78;;;-146.31;100.00
2036;BME280;23642;42.658;23.350;2023-01-16T00:25:45;45463.59;;;-146.31;100.00
2036;BME280;23642;42.658;23.350;2023-01-16T00:28:13;45438.91;;;-146.31;100.00
2036;BME280;23642;42.658;23.350;2023-01-16T00:30:41;45443.00;;;-146.31;100.00
2036;BME280;23642;42.658;23.350;2023-01-16T00:33:09;45445.06;;;-146.31;100.00
2036;BME280;23642;42.658;23.350;2023-01-16T00:35:37;45440.97;;;-146.31;100.00
2036;BME280;23642;42.658;23.350;2023-01-16T00:38:03;45445.06;;;-146.31;100.00
2036;BME280;23642;42.658;23.350;2023-01-16T00:40:30;45370.94;;;-146.31;100.00
2036;BME280;23642;42.658;23.350;2023-01-16T00:42:57;45364.75;;;-146.31;100.00
2036;BME280;23642;42.658;23.350;2023-01-16T00:45:24;45342.09;;;-146.31;100.00
2036;BME280;23642;42.658;23.350;2023-01-16T00:47:52;45319.47;;;-146.31;100.00
2036;BME280;23642;42.658;23.350;2023-01-16T00:50:19;45338.00;;;-146.31;100.00
2036;BME280;23642;42.658;23.350;2023-01-16T00:52:45;45286.50;;;-146.31;100.00
2036;BME280;23642;42.658;23.350;2023-01-16T00:55:12;45290.63;;;-146.31;100.00
2036;BME280;23642;42.658;23.350;2023-01-16T00:57:39;45276.22;;;-146.31;100.00
2036;BME280;23642;42.658;23.350;2023-01-16T01:00:07;45195.91;;;-146.31;100.00
2036;BME280;23642;42.658;23.350;2023-01-16T01:02:36;45183.53;;;-146.31;100.00
2036;BME280;23642;42.658;23.350;2023-01-16T01:05:06;45167.06;;;-146.31;100.00
2036;BME280;23642;42.658;23.350;2023-01-16T01:07:33;45142.38;;;-146.31;100.00
2036;BME280;23642;42.658;23.350;2023-01-16T01:09:59;45097.06;;;-146.31;100.00
2036;BME280;23642;42.658;23.350;2023-01-16T01:12:26;45082.66;;;-146.31;100.00
2036;BME280;23642;42.658;23.350;2023-01-16T01:14:53;45064.13;;;-146.31;100.00
2036;BME280;23642;42.658;23.350;2023-01-16T01:17:19;45041.47;;;-146.31;100.00
2036;BME280;23642;42.658;23.350;2023-01-16T01:19:46;45074.41;;;-146.31;100.00
2036;BME280;23642;42.658;23.350;2023-01-16T01:22:15;45049.69;;;-146.31;100.00
2036;BME280;23642;42.658;23.350;2023-01-16T01:24:42;45055.88;;;-146.31;100.00
2036;BME280;23642;42.658;23.350;2023-01-16T01:27:09;45037.34;;;-146.31;100.00
2036;BME280;23642;42.658;23.350;2023-01-16T01:29:38;44985.88;;;-146.31;100.00
2036;BME280;23642;42.658;23.350;2023-01-16T01:32:05;45014.69;;;-146.31;100.00
2036;BME280;23642;42.658;23.350;2023-01-16T01:34:37;44992.06;;;-146.31;100.00
2036;BME280;23642;42.658;23.350;2023-01-16T01:37:05;44992.06;;;-146.31;100.00
2036;BME280;23642;42.658;23.350;2023-01-16T01:39:34;44919.97;;;-146.31;100.00
2036;BME280;23642;42.658;23.350;2023-01-16T01:42:01;44946.75;;;-146.31;100.00
2036;BME280;23642;42.658;23.350;2023-01-16T01:45:04;44926.16;;;-146.31;100.00
2036;BME280;23642;42.658;23.350;2023-01-16T01:47:33;44922.03;;;-146.31;100.00
2036;BME280;23642;42.658;23.350;2023-01-16T01:50:04;44922.03;;;-146.31;100.00
2036;BME280;23642;42.658;23.350;2023-01-16T01:52:37;44872.63;;;-146.31;100.00
2036;BME280;23642;42.658;23.350;2023-01-16T01:55:07;44862.34;;;-146.31;100.00
2036;BME280;23642;42.658;23.350;2023-01-16T01:57:40;44895.28;;;-146.31;100.00
2036;BME280;23642;42.658;23.350;2023-01-16T02:00:10;44860.28;;;-146.31;100.00
2036;BME280;23642;42.658;23.350;2023-01-16T02:02:42;44843.81;;;-146.31;100.00
2036;BME280;23642;42.658;23.350;2023-01-16T02:05:12;44827.31;;;-146.31;100.00
2036;BME280;23642;42.658;23.350;2023-01-16T02:07:43;44831.44;;;-146.31;100.00
2036;BME280;23642;42.658;23.350;2023-01-16T02:12:57;44843.81;;;-146.31;100.00
2036;BME280;23642;42.658;23.350;2023-01-16T02:15:26;44804.69;;;-146.31;100.00
2036;BME280;23642;42.658;23.350;2023-01-16T02:17:53;44753.22;;;-146.31;100.00
2036;BME280;23642;42.658;23.350;2023-01-16T02:20:46;44757.31;;;-146.31;100.00
2036;BME280;23642;42.658;23.350;2023-01-16T02:23:47;44736.72;;;-146.31;100.00
2036;BME280;23642;42.658;23.350;2023-01-16T02:26:49;44716.16;;;-146.31;100.00
2036;BME280;23642;42.658;23.350;2023-01-16T02:29:42;44697.63;;;-146.31;100.00
2036;BME280;23642;42.658;23.350;2023-01-16T02:32:25;44712.03;;;-146.31;100.00
2036;BME280;23642;42.658;23.350;2023-01-16T02:35:06;44674.97;;;-146.31;100.00
2036;BME280;23642;42.658;23.350;2023-01-16T02:37:43;44720.25;;;-146.31;100.00
2036;BME280;23642;42.658;23.350;2023-01-16T02:40:22;44691.44;;;-146.31;100.00
2036;BME280;23642;42.658;23.350;2023-01-16T02:42:56;44707.91;;;-146.31;100.00
2036;BME280;23642;42.658;23.350;2023-01-16T02:45:29;44732.63;;;-146.31;100.00
2036;BME280;23642;42.658;23.350;2023-01-16T02:48:07;44724.38;;;-146.31;100.00
2036;BME280;23642;42.658;23.350;2023-01-16T02:50:39;44716.16;;;-146.31;100.00
2036;BME280;23642;42.658;23.350;2023-01-16T02:53:15;44718.22;;;-146.31;100.00
2036;BME280;23642;42.658;23.350;2023-01-16T02:55:47;44736.72;;;-146.31;100.00
2036;BME280;23642;42.658;23.350;2023-01-16T02:58:16;44712.03;;;-146.31;100.00
2036;BME280;23642;42.658;23.350;2023-01-16T03:00:49;44709.97;;;-146.31;100.00
2036;BME280;23642;42.658;23.350;2023-01-16T03:03:36;44707.91;;;-146.31;100.00
2036;BME280;23642;42.658;23.350;2023-01-16T03:06:09;44724.38;;;-146.31;100.00
2036;BME280;23642;42.658;23.350;2023-01-16T03:08:47;44738.78;;;-146.31;100.00
2036;BME280;23642;42.658;23.350;2023-01-16T03:11:19;44716.16;;;-146.31;100.00
2036;BME280;23642;42.658;23.350;2023-01-16T03:14:05;44701.72;;;-146.31;100.00
2036;BME280;23642;42.658;23.350;2023-01-16T03:16:41;44705.84;;;-146.31;100.00
2036;BME280;23642;42.658;23.350;2023-01-16T03:19:20;44679.09;;;-146.31;100.00
2036;BME280;23642;42.658;23.350;2023-01-16T03:22:01;44687.31;;;-146.31;100.00
2036;BME280;23642;42.658;23.350;2023-01-16T03:24:36;44709.97;;;-146.31;100.00
2036;BME280;23642;42.658;23.350;2023-01-16T03:27:18;44695.56;;;-146.31;100.00
2036;BME280;23642;42.658;23.350;2023-01-16T03:29:52;44689.38;;;-146.31;100.00
2036;BME280;23642;42.658;23.350;2023-01-16T03:32:25;44670.84;;;-146.31;100.00
2036;BME280;23642;42.658;23.350;2023-01-16T03:35:01;44697.63;;;-146.31;100.00
2036;BME280;23642;42.658;23.350;2023-01-16T03:37:32;44712.03;;;-146.31;100.00
2036;BME280;23642;42.658;23.350;2023-01-16T03:40:04;44658.50;;;-146.31;100.00
2036;BME280;23642;42.658;23.350;2023-01-16T03:42:36;44666.72;;;-146.31;100.00
2036;BME280;23642;42.658;23.350;2023-01-16T03:45:09;44633.78;;;-146.31;100.00
2036;BME280;23642;42.658;23.350;2023-01-16T03:47:47;44662.63;;;-146.31;100.00
2036;BME280;23642;42.658;23.350;2023-01-16T03:50:20;44613.19;;;-146.31;100.00
2036;BME280;23642;42.658;23.350;2023-01-16T03:52:51;44650.25;;;-146.31;100.00
2036;BME280;23642;42.658;23.350;2023-01-16T03:55:24;44625.56;;;-146.31;100.00
2036;BME280;23642;42.658;23.350;2023-01-16T03:57:57;44617.31;;;-146.31;100.00
2036;BME280;23642;42.658;23.350;2023-01-16T04:00:30;44594.66;;;-146.31;100.00
2036;BME280;23642;42.658;23.350;2023-01-16T04:03:04;44580.25;;;-146.31;100.00
2036;BME280;23642;42.658;23.350;2023-01-16T04:05:39;44574.09;;;-146.31;100.00
2036;BME280;23642;42.658;23.350;2023-01-16T04:08:10;44520.56;;;-146.31;100.00
2036;BME280;23642;42.658;23.350;2023-01-16T04:10:43;44497.91;;;-146.31;100.00
2036;BME280;23642;42.658;23.350;2023-01-16T04:13:12;44460.84;;;-146.31;100.00
2036;BME280;23642;42.658;23.350;2023-01-16T04:15:44;44415.56;;;-146.31;100.00
2036;BME280;23642;42.658;23.350;2023-01-16T04:18:12;44417.63;;;-146.31;100.00
2036;BME280;23642;42.658;23.350;2023-01-16T04:20:43;44376.44;;;-146.31;100.00
2036;BME280;23642;42.658;23.350;2023-01-16T04:23:11;44357.91;;;-146.31;100.00
2036;BME280;23642;42.658;23.350;2023-01-16T04:25:38;44362.03;;;-146.31;100.00
2036;BME280;23642;42.658;23.350;2023-01-16T04:28:05;44324.97;;;-146.31;100.00
2036;BME280;23642;42.658;23.350;2023-01-16T04:30:32;44302.34;;;-146.31;100.00
2036;BME280;23642;42.658;23.350;2023-01-16T04:33:00;44287.94;;;-146.31;100.00
2036;BME280;23642;42.658;23.350;2023-01-16T04:35:27;44259.09;;;-146.31;100.00
2036;BME280;23642;42.658;23.350;2023-01-16T04:37:55;44261.16;;;-146.31;100.00
2036;BME280;23642;42.658;23.350;2023-01-16T04:40:22;44250.88;;;-146.31;100.00
2036;BME280;23642;42.658;23.350;2023-01-16T04:42:49;44230.28;;;-146.31;100.00
2036;BME280;23642;42.658;23.350;2023-01-16T04:45:16;44213.81;;;-146.31;100.00
2036;BME280;23642;42.658;23.350;2023-01-16T04:47:45;44164.41;;;-146.31;100.00
2036;BME280;23642;42.658;23.350;2023-01-16T04:50:12;44152.06;;;-146.31;100.00
2036;BME280;23642;42.658;23.350;2023-01-16T04:52:39;44170.59;;;-146.31;100.00
2036;BME280;23642;42.658;23.350;2023-01-16T04:55:08;44160.28;;;-146.31;100.00
2036;BME280;23642;42.658;23.350;2023-01-16T04:57:35;44135.59;;;-146.31;100.00
2036;BME280;23642;42.658;23.350;2023-01-16T05:00:07;44131.47;;;-146.31;100.00
2036;BME280;23642;42.658;23.350;2023-01-16T05:02:34;44098.53;;;-146.31;100.00
2036;BME280;23642;42.658;23.350;2023-01-16T05:05:00;44094.41;;;-146.31;100.00
2036;BME280;23642;42.658;23.350;2023-01-16T05:07:27;44071.78;;;-146.31;100.00
2036;BME280;23642;42.658;23.350;2023-01-16T05:09:54;44104.72;;;-146.31;100.00
2036;BME280;23642;42.658;23.350;2023-01-16T05:12:22;44110.88;;;-146.31;100.00
2036;BME280;23642;42.658;23.350;2023-01-16T05:14:49;44119.13;;;-146.31;100.00
2036;BME280;23642;42.658;23.350;2023-01-16T05:17:16;44096.47;;;-146.31;100.00
2036;BME280;23642;42.658;23.350;2023-01-16T05:19:48;44082.06;;;-146.31;100.00
2036;BME280;23642;42.658;23.350;2023-01-16T05:22:14;44082.06;;;-146.31;100.00
2036;BME280;23642;42.658;23.350;2023-01-16T05:24:41;44073.84;;;-146.31;100.00
2036;BME280;23642;42.658;23.350;2023-01-16T05:27:11;44057.38;;;-146.31;100.00
2036;BME280;23642;42.658;23.350;2023-01-16T05:30:06;44053.25;;;-146.31;100.00
2036;BME280;23642;42.658;23.350;2023-01-16T05:32:33;44049.13;;;-146.31;100.00
2036;BME280;23642;42.658;23.350;2023-01-16T05:35:00;44077.94;;;-146.31;100.00
2036;BME280;23642;42.658;23.350;2023-01-16T05:37:27;44049.13;;;-146.31;100.00
2036;BME280;23642;42.658;23.350;2023-01-16T05:39:54;44069.72;;;-146.31;100.00
2036;BME280;23642;42.658;23.350;2023-01-16T05:42:22;44053.25;;;-146.31;100.00
2036;BME280;23642;42.658;23.350;2023-01-16T05:44:51;44071.78;;;-146.31;100.00
2036;BME280;23642;42.658;23.350;2023-01-16T05:47:20;44049.13;;;-146.31;100.00
2036;BME280;23642;42.658;23.350;2023-01-16T05:49:47;44063.53;;;-146.31;100.00
2036;BME280;23642;42.658;23.350;2023-01-16T05:52:14;44040.91;;;-146.31;100.00
2036;BME280;23642;42.658;23.350;2023-01-16T05:54:41;43995.59;;;-146.31;100.00
2036;BME280;23642;42.658;23.350;2023-01-16T05:57:07;44028.53;;;-146.31;100.00
2036;BME280;23642;42.658;23.350;2023-01-16T05:59:34;44020.31;;;-146.31;100.00
2036;BME280;23642;42.658;23.350;2023-01-16T06:02:01;43995.59;;;-146.31;100.00
2036;BME280;23642;42.658;23.350;2023-01-16T06:04:29;43991.50;;;-146.31;100.00
2036;BME280;23642;42.658;23.350;2023-01-16T06:06:56;44003.84;;;-146.31;100.00
2036;BME280;23642;42.658;23.350;2023-01-16T06:09:22;43966.78;;;-146.31;100.00
2036;BME280;23642;42.658;23.350;2023-01-16T06:11:49;43977.09;;;-146.31;100.00
2036;BME280;23642;42.658;23.350;2023-01-16T06:14:16;43970.91;;;-146.31;100.00
2036;BME280;23642;42.658;23.350;2023-01-16T06:16:43;43964.72;;;-146.31;100.00
2036;BME280;23642;42.658;23.350;2023-01-16T06:19:10;43968.84;;;-146.31;100.00
2036;BME280;23642;42.658;23.350;2023-01-16T06:21:38;43970.91;;;-146.31;100.00
2036;BME280;23642;42.658;23.350;2023-01-16T06:24:05;43952.38;;;-146.31;100.00
2036;BME280;23642;42.658;23.350;2023-01-16T06:26:32;43977.09;;;-146.31;100.00
2036;BME280;23642;42.658;23.350;2023-01-16T06:28:59;43946.22;;;-146.31;100.00
2036;BME280;23642;42.658;23.350;2023-01-16T06:31:25;43952.38;;;-146.31;100.00
2036;BME280;23642;42.658;23.350;2023-01-16T06:33:52;43911.22;;;-146.31;100.00
2036;BME280;23642;42.658;23.350;2023-01-16T06:36:19;43952.38;;;-146.31;100.00
2036;BME280;23642;42.658;23.350;2023-01-16T06:38:47;43909.16;;;-146.31;100.00
2036;BME280;23642;42.658;23.350;2023-01-16T06:41:14;43933.84;;;-146.31;100.00
2036;BME280;23642;42.658;23.350;2023-01-16T06:43:41;43966.78;;;-146.31;100.00
2036;BME280;23642;42.658;23.350;2023-01-16T06:46:07;43979.13;;;-146.31;100.00
2036;BME280;23642;42.658;23.350;2023-01-16T06:48:34;43925.63;;;-146.31;100.00
2036;BME280;23642;42.658;23.350;2023-01-16T06:51:01;43917.38;;;-146.31;100.00
2036;BME280;23642;42.658;23.350;2023-01-16T06:53:27;43964.72;;;-146.31;100.00
2036;BME280;23642;42.658;23.350;2023-01-16T06:55:56;44016.19;;;-146.31;100.00
2036;BME280;23642;42.658;23.350;2023-01-16T06:58:22;43995.59;;;-146.31;100.00
2036;BME280;23642;42.658;23.350;2023-01-16T07:00:49;44016.19;;;-146.31;100.00
2036;BME280;23642;42.658;23.350;2023-01-16T07:03:17;44034.72;;;-146.31;100.00
2036;BME280;23642;42.658;23.350;2023-01-16T07:05:45;44090.31;;;-146.31;100.00
2036;BME280;23642;42.658;23.350;2023-01-16T07:08:12;44073.84;;;-146.31;100.00
2036;BME280;23642;42.658;23.350;2023-01-16T07:10:39;44030.59;;;-146.31;100.00
2036;BME280;23642;42.658;23.350;2023-01-16T07:13:07;44108.81;;;-146.31;100.00
2036;BME280;23642;42.658;23.350;2023-01-16T07:15:35;44133.53;;;-146.31;100.00
2036;BME280;23642;42.658;23.350;2023-01-16T07:18:28;44119.13;;;-146.31;100.00
2036;BME280;23642;42.658;23.350;2023-01-16T07:21:13;44172.63;;;-146.31;100.00
2036;BME280;23642;42.658;23.350;2023-01-16T07:23:59;44263.22;;;-146.31;100.00
2036;BME280;23642;42.658;23.350;2023-01-16T07:26:27;44298.22;;;-146.31;100.00
2036;BME280;23642;42.658;23.350;2023-01-16T07:28:58;44362.03;;;-146.31;100.00
2036;BME280;23642;42.658;23.350;2023-01-16T07:31:27;44378.50;;;-146.31;100.00
2036;BME280;23642;42.658;23.350;2023-01-16T07:33:55;44452.63;;;-146.31;100.00
2036;BME280;23642;42.658;23.350;2023-01-16T07:36:21;44549.38;;;-146.31;100.00
2036;BME280;23642;42.658;23.350;2023-01-16T07:38:48;44689.38;;;-146.31;100.00
2036;BME280;23642;42.658;23.350;2023-01-16T07:41:15;44891.16;;;-146.31;100.00
2036;BME280;23642;42.658;23.350;2023-01-16T07:43:42;45049.69;;;-146.31;100.00
2036;BME280;23642;42.658;23.350;2023-01-16T07:46:10;45103.25;;;-146.31;100.00
2036;BME280;23642;42.658;23.350;2023-01-16T07:48:37;45173.25;;;-146.31;100.00
2036;BME280;23642;42.658;23.350;2023-01-16T07:51:04;45311.22;;;-146.31;100.00
2036;BME280;23642;42.658;23.350;2023-01-16T07:53:31;45576.88;;;-146.31;100.00
2036;BME280;23642;42.658;23.350;2023-01-16T07:56:00;45914.63;;;-146.31;100.00
2036;BME280;23642;42.658;23.350;2023-01-16T07:58:28;46174.16;;;-146.31;100.00
2036;BME280;23642;42.658;23.350;2023-01-16T08:00:56;46283.34;;;-146.31;100.00
2036;BME280;23642;42.658;23.350;2023-01-16T08:03:25;46371.91;;;-146.31;100.00
2036;BME280;23642;42.658;23.350;2023-01-16T08:05:55;46584.09;;;-146.31;100.00
2036;BME280;23642;42.658;23.350;2023-01-16T08:08:22;46582.03;;;-146.31;100.00
2036;BME280;23642;42.658;23.350;2023-01-16T08:10:53;46654.13;;;-146.31;100.00
2036;BME280;23642;42.658;23.350;2023-01-16T08:13:20;46796.28;;;-146.31;100.00
2036;BME280;23642;42.658;23.350;2023-01-16T08:15:46;47088.81;;;-146.31;100.00
2036;BME280;23642;42.658;23.350;2023-01-16T08:18:13;47249.53;;;-146.31;100.00
2036;BME280;23642;42.658;23.350;2023-01-16T08:20:41;47519.47;;;-146.31;99.89
2036;BME280;23642;42.658;23.350;2023-01-16T08:23:10;47707.00;;;-146.31;98.61
2036;BME280;23642;42.658;23.350;2023-01-16T08:25:37;47911.00;;;-146.31;97.89
2036;BME280;23642;42.658;23.350;2023-01-16T08:28:04;48044.97;;;-146.31;97.39
2036;BME280;23642;42.658;23.350;2023-01-16T08:30:31;48174.81;;;-146.31;96.87
2036;BME280;23642;42.658;23.350;2023-01-16T08:32:58;48201.59;;;-146.31;97.69
2036;BME280;23642;42.658;23.350;2023-01-16T08:35:25;48218.09;;;-146.31;97.59
2036;BME280;23642;42.658;23.350;2023-01-16T08:37:53;48399.47;;;-146.31;96.22
2036;BME280;23642;42.658;23.350;2023-01-16T08:40:20;48523.13;;;-146.31;95.94
2036;BME280;23642;42.658;23.350;2023-01-16T08:42:47;48539.63;;;-146.31;96.06
2036;BME280;23642;42.658;23.350;2023-01-16T08:45:32;48939.53;;;-146.31;93.42
2036;BME280;23642;42.658;23.350;2023-01-16T08:48:20;49050.84;;;-146.31;93.45
2036;BME280;23642;42.658;23.350;2023-01-16T08:51:08;48989.00;;;-146.31;93.01
2036;BME280;23642;42.658;23.350;2023-01-16T08:53:52;49238.47;;;-146.31;91.28
2036;BME280;23642;42.658;23.350;2023-01-16T08:56:20;49261.13;;;-146.31;91.95
2036;BME280;23642;42.658;23.350;2023-01-16T08:59:00;49364.22;;;-146.31;91.27
2036;BME280;23642;42.658;23.350;2023-01-16T09:01:27;49405.44;;;-146.31;92.12
2036;BME280;23642;42.658;23.350;2023-01-16T09:03:54;49450.81;;;-146.31;91.19
2036;BME280;23642;42.658;23.350;2023-01-16T09:06:23;49541.53;;;-146.31;90.93
2036;BME280;23642;42.658;23.350;2023-01-16T09:08:51;49654.94;;;-146.31;89.73
2036;BME280;23642;42.658;23.350;2023-01-16T09:11:18;49601.31;;;-146.31;91.19
2036;BME280;23642;42.658;23.350;2023-01-16T09:14:02;49537.41;;;-146.31;92.15
2036;BME280;23642;42.658;23.350;2023-01-16T09:16:29;49566.28;;;-146.31;92.04
2036;BME280;23642;42.658;23.350;2023-01-16T09:18:56;49512.66;;;-146.31;92.49
2036;BME280;23642;42.658;23.350;2023-01-16T09:21:23;49518.84;;;-146.31;93.09
2036;BME280;23642;42.658;23.350;2023-01-16T09:23:51;49533.28;;;-146.31;92.81
2036;BME280;23642;42.658;23.350;2023-01-16T09:26:19;49558.03;;;-146.31;92.34
2036;BME280;23642;42.658;23.350;2023-01-16T09:28:46;49611.63;;;-146.31;91.99
2036;BME280;23642;42.658;23.350;2023-01-16T09:31:13;49636.38;;;-146.31;91.42
2036;BME280;23642;42.658;23.350;2023-01-16T09:33:40;49677.63;;;-146.31;90.84
2036;BME280;23642;42.658;23.350;2023-01-16T09:36:08;49747.72;;;-146.31;89.91
2036;BME280;23642;42.658;23.350;2023-01-16T09:38:35;49863.19;;;-146.31;87.51
2036;BME280;23642;42.658;23.350;2023-01-16T09:41:08;50100.34;;;-146.31;85.25
2036;BME280;23642;42.658;23.350;2023-01-16T09:44:01;50180.75;;;-146.31;86.39
2036;BME280;23642;42.658;23.350;2023-01-16T09:46:37;50176.63;;;-146.31;86.49
2036;BME280;23642;42.658;23.350;2023-01-16T09:49:15;50143.66;;;-146.31;88.57
2036;BME280;23642;42.658;23.350;2023-01-16T09:51:49;50094.16;;;-146.31;88.60
2036;BME280;23642;42.658;23.350;2023-01-16T09:54:35;50180.75;;;-146.31;87.27
2036;BME280;23642;42.658;23.350;2023-01-16T09:57:26;50108.59;;;-146.31;89.14
2036;BME280;23642;42.658;23.350;2023-01-16T10:00:15;50120.97;;;-146.31;88.81
2036;BME280;23642;42.658;23.350;2023-01-16T10:02:43;50145.72;;;-146.31;88.42
2036;BME280;23642;42.658;23.350;2023-01-16T10:05:14;50195.19;;;-146.31;87.72
2036;BME280;23642;42.658;23.350;2023-01-16T10:07:52;50246.75;;;-146.31;87.14
2036;BME280;23642;42.658;23.350;2023-01-16T10:10:36;50209.63;;;-146.31;87.39
2036;BME280;23642;42.658;23.350;2023-01-16T10:16:17;50300.38;;;-146.31;85.85
2036;BME280;23642;42.658;23.350;2023-01-16T10:19:14;50271.50;;;-146.31;85.25
2036;BME280;23642;42.658;23.350;2023-01-16T10:22:09;50337.50;;;-146.31;85.28
2036;BME280;23642;42.658;23.350;2023-01-16T10:25:04;50333.38;;;-146.31;84.91
2036;BME280;23642;42.658;23.350;2023-01-16T10:27:44;50333.38;;;-146.31;86.57
2036;BME280;23642;42.658;23.350;2023-01-16T10:33:38;50434.44;;;-146.31;82.92
2036;BME280;23642;42.658;23.350;2023-01-16T10:36:11;50424.13;;;-146.31;83.22
2036;BME280;23642;42.658;23.350;2023-01-16T10:38:41;50502.50;;;-146.31;83.05
2036;BME280;23642;42.658;23.350;2023-01-16T10:41:15;50521.06;;;-146.31;81.87
2036;BME280;23642;42.658;23.350;2023-01-16T10:44:02;50564.38;;;-146.31;81.18
2036;BME280;23642;42.658;23.350;2023-01-16T10:46:48;50568.50;;;-146.31;82.79
2036;BME280;23642;42.658;23.350;2023-01-16T10:49:35;50601.50;;;-146.31;82.77
2036;BME280;23642;42.658;23.350;2023-01-16T10:52:03;50589.13;;;-146.31;82.99
2036;BME280;23642;42.658;23.350;2023-01-16T10:54:32;50570.56;;;-146.31;83.06
2036;BME280;23642;42.658;23.350;2023-01-16T10:56:59;50587.06;;;-146.31;82.02
2036;BME280;23642;42.658;23.350;2023-01-16T10:59:36;50675.75;;;-146.31;81.34
2036;BME280;23642;42.658;23.350;2023-01-16T11:02:15;50686.06;;;-146.31;82.48
2036;BME280;23642;42.658;23.350;2023-01-16T11:04:44;50650.97;;;-146.31;82.84
2036;BME280;23642;42.658;23.350;2023-01-16T11:07:16;50601.50;;;-146.31;83.36
2036;BME280;23642;42.658;23.350;2023-01-16T11:09:44;50632.44;;;-146.31;84.04
2036;BME280;23642;42.658;23.350;2023-01-16T11:12:17;50642.75;;;-146.31;84.74
2036;BME280;23642;42.658;23.350;2023-01-16T11:15:23;50628.28;;;-146.31;85.34
2036;BME280;23642;42.658;23.350;2023-01-16T11:18:27;50560.25;;;-146.31;86.11
2036;BME280;23642;42.658;23.350;2023-01-16T11:20:59;50539.63;;;-146.31;85.12
2036;BME280;23642;42.658;23.350;2023-01-16T11:23:41;50576.75;;;-146.31;84.87
2036;BME280;23642;42.658;23.350;2023-01-16T11:26:25;50607.69;;;-146.31;84.59
2036;BME280;23642;42.658;23.350;2023-01-16T11:29:25;50572.63;;;-146.31;84.94
2036;BME280;23642;42.658;23.350;2023-01-16T11:32:29;50605.59;;;-146.31;83.87
2036;BME280;23642;42.658;23.350;2023-01-16T11:35:33;50655.13;;;-146.31;82.75
2036;BME280;23642;42.658;23.350;2023-01-16T11:39:04;50714.94;;;-146.31;81.92
2036;BME280;23642;42.658;23.350;2023-01-16T11:41:44;50696.38;;;-146.31;82.78
2036;BME280;23642;42.658;23.350;2023-01-16T11:50:35;50714.94;;;-146.31;80.95
2036;BME280;23642;42.658;23.350;2023-01-16T11:53:28;50778.88;;;-146.31;79.79
2036;BME280;23642;42.658;23.350;2023-01-16T11:56:38;50780.94;;;-146.31;78.73
2036;BME280;23642;42.658;23.350;2023-01-16T11:59:21;50778.88;;;-146.31;79.65
2036;BME280;23642;42.658;23.350;2023-01-16T12:02:25;50776.81;;;-146.31;80.02
2036;BME280;23642;42.658;23.350;2023-01-16T12:05:25;50791.25;;;-146.31;78.42
2036;BME280;23642;42.658;23.350;2023-01-16T12:08:24;50820.13;;;-146.31;79.74
2036;BME280;23642;42.658;23.350;2023-01-16T12:11:40;50820.13;;;-146.31;80.45
2036;BME280;23642;42.658;23.350;2023-01-16T12:18:00;50778.88;;;-146.31;81.04
2036;BME280;23642;42.658;23.350;2023-01-16T12:20:39;50789.19;;;-146.31;79.78
2036;BME280;23642;42.658;23.350;2023-01-16T12:23:38;50826.31;;;-146.31;80.62
2036;BME280;23642;42.658;23.350;2023-01-16T12:26:18;50807.75;;;-146.31;80.11
2036;BME280;23642;42.658;23.350;2023-01-16T12:28:55;50849.00;;;-146.31;79.57
2036;BME280;23642;42.658;23.350;2023-01-16T12:31:35;50853.13;;;-146.31;79.32
2036;BME280;23642;42.658;23.350;2023-01-16T12:34:28;50896.44;;;-146.31;79.75
2036;BME280;23642;42.658;23.350;2023-01-16T12:37:09;50879.94;;;-146.31;80.07
2036;BME280;23642;42.658;23.350;2023-01-16T12:39:47;50879.94;;;-146.31;80.40
2036;BME280;23642;42.658;23.350;2023-01-16T12:42:27;50840.75;;;-146.31;80.75
2036;BME280;23642;42.658;23.350;2023-01-16T12:45:28;50886.13;;;-146.31;80.76
2036;BME280;23642;42.658;23.350;2023-01-16T12:48:14;50857.25;;;-146.31;81.00
2036;BME280;23642;42.658;23.350;2023-01-16T12:50:58;50877.88;;;-146.31;81.84
2036;BME280;23642;42.658;23.350;2023-01-16T12:54:07;50816.00;;;-146.31;82.12
2036;BME280;23642;42.658;23.350;2023-01-16T12:56:53;50824.25;;;-146.31;81.66
2036;BME280;23642;42.658;23.350;2023-01-16T12:59:26;50832.50;;;-146.31;81.02
2036;BME280;23642;42.658;23.350;2023-01-16T13:01:59;50853.13;;;-146.31;80.52
2036;BME280;23642;42.658;23.350;2023-01-16T13:04:35;50828.38;;;-146.31;80.87
2036;BME280;23642;42.658;23.350;2023-01-16T13:07:05;50836.63;;;-146.31;81.22
2036;BME280;23642;42.658;23.350;2023-01-16T13:09:36;50832.50;;;-146.31;81.43
2036;BME280;23642;42.658;23.350;2023-01-16T13:12:10;50834.56;;;-146.31;81.28
2036;BME280;23642;42.658;23.350;2023-01-16T13:15:02;50807.75;;;-146.31;81.72
2036;BME280;23642;42.658;23.350;2023-01-16T13:17:39;50811.88;;;-146.31;81.07
2036;BME280;23642;42.658;23.350;2023-01-16T13:20:10;50830.44;;;-146.31;81.62
2036;BME280;23642;42.658;23.350;2023-01-16T13:22:42;50820.13;;;-146.31;81.30
2036;BME280;23642;42.658;23.350;2023-01-16T13:25:17;50859.31;;;-146.31;80.95